Time;durP1;ratioP1;P1;durP2;ratioP2;P2;SDS_P1;SDS_P2;PMS_P1;PMS_P2;Temp;Humidity;BMP_temperature;BMP_pressure;BME280_temperature;BME280_humidity;BME280_pressure;Samples;Min_cycle;Max_cycle;Signal;HPM_P1;HPM_P2
2022/03/05 00:00:20;;;;;;;15.50;7.10;;;;;;;-0.89;65.79;101057.03;8223370;34;20275;-73
2022/03/05 00:05:24;;;;;;;19.43;7.40;;;;;;;-0.91;65.80;101055.34;8222527;34;20446;-73
2022/03/05 00:10:28;;;;;;;16.00;7.60;;;;;;;-0.97;66.36;101057.22;8222191;34;20438;-73
2022/03/05 00:15:30;;;;;;;17.97;8.03;;;;;;;-0.99;66.25;101056.41;8221445;34;20500;-73
2022/03/05 00:20:35;;;;;;;19.17;8.53;;;;;;;-1.05;66.43;101053.88;8222229;34;20532;-73
2022/03/05 00:25:38;;;;;;;21.70;10.40;;;;;;;-1.04;66.73;101054.75;8221937;34;20117;-74
2022/03/05 00:30:41;;;;;;;23.27;9.67;;;;;;;-1.06;66.64;101051.28;8221951;34;20559;-74
2022/03/05 00:35:46;;;;;;;24.43;10.87;;;;;;;-1.03;66.43;101057.34;8221730;34;20546;-73
2022/03/05 00:40:49;;;;;;;19.73;9.37;;;;;;;-1.03;66.64;101062.63;8221586;34;20203;-73
2022/03/05 00:45:52;;;;;;;22.30;9.73;;;;;;;-1.04;66.39;101075.84;8221277;34;21010;-73
2022/03/05 00:50:57;;;;;;;19.83;8.83;;;;;;;-1.11;66.43;101067.19;8221134;34;20431;-73
2022/03/05 00:56:00;;;;;;;23.87;9.70;;;;;;;-1.13;66.52;101061.09;8220823;34;20475;-73
2022/03/05 01:01:03;;;;;;;23.83;10.37;;;;;;;-1.09;66.49;101075.09;8220699;34;20167;-73
2022/03/05 01:06:08;;;;;;;24.43;9.67;;;;;;;-1.17;66.36;101073.47;8220571;34;20394;-73
2022/03/05 01:11:15;;;;;;;23.40;9.73;;;;;;;-1.24;66.96;101068.38;8220933;34;20928;-73
2022/03/05 01:16:18;;;;;;;21.63;9.80;;;;;;;-1.31;67.00;101070.28;8220697;34;20466;-73
2022/03/05 01:21:23;;;;;;;23.93;10.87;;;;;;;-1.34;67.46;101061.53;8220650;34;20435;-73
2022/03/05 01:26:28;;;;;;;25.87;10.53;;;;;;;-1.34;67.61;101054.53;8220508;34;20479;-73
2022/03/05 01:31:31;;;;;;;26.83;11.17;;;;;;;-1.36;67.61;101050.19;8220820;34;20575;-73
2022/03/05 01:36:36;;;;;;;26.57;11.33;;;;;;;-1.44;68.12;101060.88;8220539;34;20901;-73
2022/03/05 01:41:39;;;;;;;23.20;12.63;;;;;;;-1.39;68.20;101051.13;8220697;34;20458;-73
2022/03/05 01:46:42;;;;;;;26.27;11.80;;;;;;;-1.36;67.82;101058.09;8220326;34;20254;-73
2022/03/05 01:51:47;;;;;;;26.53;10.57;;;;;;;-1.43;68.04;101054.69;8220489;34;20411;-73
2022/03/05 01:56:51;;;;;;;28.07;10.63;;;;;;;-1.53;68.33;101047.91;8219873;34;20951;-73
2022/03/05 02:01:54;;;;;;;26.43;10.73;;;;;;;-1.59;68.58;101045.38;8220127;34;20914;-73
2022/03/05 02:06:59;;;;;;;25.17;11.23;;;;;;;-1.51;68.22;101046.06;8217214;34;20425;-73
2022/03/05 02:12:04;;;;;;;27.07;11.33;;;;;;;-1.59;68.58;101038.34;8217936;34;20550;-73
2022/03/05 02:17:07;;;;;;;28.30;10.70;;;;;;;-1.66;68.53;101040.22;8224911;34;20437;-73
2022/03/05 02:22:11;;;;;;;28.87;12.40;;;;;;;-1.73;68.90;101027.19;8224751;34;20447;-73
2022/03/05 02:27:14;;;;;;;28.93;10.47;;;;;;;-1.74;69.20;101031.59;8224557;34;20148;-73
2022/03/05 02:32:17;;;;;;;32.00;12.27;;;;;;;-1.72;69.32;101021.06;8224468;34;20697;-73
2022/03/05 02:37:22;;;;;;;29.07;13.17;;;;;;;-1.78;69.68;101021.16;8224508;34;21076;-73
2022/03/05 02:42:25;;;;;;;27.53;12.00;;;;;;;-1.81;69.80;101010.69;8224178;34;21007;-73
2022/03/05 02:47:28;;;;;;;31.23;12.63;;;;;;;-1.77;70.15;101013.22;8224478;34;20565;-73
2022/03/05 02:52:33;;;;;;;28.37;12.57;;;;;;;-1.66;69.80;101011.25;8223738;34;20909;-73
2022/03/05 02:57:36;;;;;;;31.17;11.70;;;;;;;-1.67;69.37;101006.03;8223914;34;20483;-73
2022/03/05 03:02:40;;;;;;;24.50;11.07;;;;;;;-1.73;69.96;101007.00;8223750;34;20522;-73
2022/03/05 03:07:45;;;;;;;27.67;11.83;;;;;;;-1.79;69.79;101006.25;8223959;34;20870;-73
2022/03/05 03:12:48;;;;;;;28.27;12.10;;;;;;;-1.88;70.17;101007.31;8223434;34;20411;-73
2022/03/05 03:17:52;;;;;;;30.70;11.77;;;;;;;-1.85;70.04;101000.22;8223435;34;20933;-73
2022/03/05 03:22:57;;;;;;;26.77;11.97;;;;;;;-1.87;70.07;100998.50;8223054;34;20125;-73
2022/03/05 03:28:00;;;;;;;29.83;12.20;;;;;;;-1.91;70.22;100994.22;8222985;34;20313;-73
2022/03/05 03:33:03;;;;;;;30.87;11.73;;;;;;;-1.92;70.56;100997.72;8223109;34;20270;-73
2022/03/05 03:38:07;;;;;;;29.00;12.70;;;;;;;-1.95;70.47;100997.78;8223154;34;20503;-73
2022/03/05 03:43:11;;;;;;;25.50;10.50;;;;;;;-1.99;71.49;101004.03;8212797;34;20908;-73
2022/03/05 03:48:14;;;;;;;27.17;11.03;;;;;;;-1.96;71.08;101001.31;8223319;34;20297;-73
2022/03/05 03:53:18;;;;;;;22.80;10.13;;;;;;;-1.96;71.04;100999.56;8222510;34;20243;-73
2022/03/05 03:58:22;;;;;;;26.77;9.73;;;;;;;-2.01;71.35;101011.94;8223039;34;20434;-73
2022/03/05 04:03:25;;;;;;;31.53;11.70;;;;;;;-2.11;71.84;101008.63;8223795;34;20599;-73
2022/03/05 04:08:44;;;;;;;25.97;10.87;;;;;;;-2.07;71.90;101006.78;8228735;34;20409;-73
2022/03/05 04:13:48;;;;;;;26.60;11.93;;;;;;;-1.99;72.07;101014.56;8227179;34;20903;-73
2022/03/05 04:18:51;;;;;;;24.70;10.90;;;;;;;-2.04;71.95;101019.91;8222554;34;20522;-73
2022/03/05 04:23:56;;;;;;;25.23;12.67;;;;;;;-1.96;71.39;101017.13;8221944;34;20917;-73
2022/03/05 04:28:59;;;;;;;25.47;10.63;;;;;;;-2.02;72.14;101014.63;8221978;34;20259;-73
2022/03/05 04:34:02;;;;;;;25.17;11.60;;;;;;;-2.03;72.06;101023.41;8221729;34;20517;-73
2022/03/05 04:39:06;;;;;;;26.63;12.27;;;;;;;-2.08;72.44;101028.75;8221807;34;20461;-73
2022/03/05 04:44:10;;;;;;;26.30;11.87;;;;;;;-2.13;72.33;101020.06;8221646;34;20439;-73
2022/03/05 04:49:13;;;;;;;24.20;10.83;;;;;;;-2.17;72.88;101021.88;8210988;34;20464;-73
2022/03/05 04:54:18;;;;;;;21.57;10.80;;;;;;;-2.18;72.89;101030.69;8221683;34;20532;-73
2022/03/05 04:59:21;;;;;;;32.13;11.67;;;;;;;-2.15;72.73;101024.50;8211597;34;20302;-73
2022/03/05 05:04:24;;;;;;;26.90;12.67;;;;;;;-2.21;72.93;101022.84;8221405;34;20465;-73
2022/03/05 05:09:30;;;;;;;25.23;10.53;;;;;;;-2.19;73.37;101025.47;8212930;34;20498;-73
2022/03/05 05:14:33;;;;;;;29.47;11.57;;;;;;;-2.25;73.73;101029.03;8220891;34;20923;-74
2022/03/05 05:19:36;;;;;;;24.43;9.73;;;;;;;-2.22;73.46;101030.75;8221171;34;20426;-73
2022/03/05 05:24:41;;;;;;;29.57;13.10;;;;;;;-2.15;73.68;101027.13;8220675;34;20496;-73
2022/03/05 05:29:45;;;;;;;31.67;13.10;;;;;;;-2.13;73.74;101028.84;8221049;34;20447;-73
2022/03/05 05:34:48;;;;;;;31.07;11.27;;;;;;;-2.10;73.55;101025.28;8220376;34;20429;-73
2022/03/05 05:39:53;;;;;;;31.83;13.87;;;;;;;-2.11;73.26;101028.81;8221269;34;20449;-73
2022/03/05 05:44:58;;;;;;;30.80;12.87;;;;;;;-2.03;73.51;101020.75;8220566;34;20407;-72
2022/03/05 05:50:01;;;;;;;30.90;13.10;;;;;;;-2.19;73.72;101025.47;8221264;34;20538;-73
2022/03/05 05:55:07;;;;;;;31.03;12.50;;;;;;;-2.13;73.79;101025.34;8225786;34;20416;-73
2022/03/05 06:00:12;;;;;;;29.67;12.60;;;;;;;-2.11;73.95;101032.31;8225925;34;20319;-72
2022/03/05 06:05:17;;;;;;;30.60;12.63;;;;;;;-2.12;74.19;101042.88;8225676;34;20871;-73
2022/03/05 06:10:21;;;;;;;32.87;12.77;;;;;;;-2.17;74.22;101040.31;8224951;34;20434;-73
2022/03/05 06:15:24;;;;;;;33.30;13.97;;;;;;;-2.03;73.85;101036.56;8224808;34;21234;-73
2022/03/05 06:20:27;;;;;;;27.73;12.27;;;;;;;-1.99;73.39;101031.22;8225142;34;20435;-73
2022/03/05 06:25:32;;;;;;;35.63;14.33;;;;;;;-1.98;74.13;101034.72;8224940;34;20425;-73
2022/03/05 06:30:35;;;;;;;27.07;12.67;;;;;;;-1.89;74.09;101042.47;8225209;34;20168;-73
2022/03/05 06:35:38;;;;;;;28.17;12.93;;;;;;;-1.83;73.67;101041.47;8226095;34;20131;-73
2022/03/05 06:40:44;;;;;;;31.53;12.87;;;;;;;-1.71;73.44;101043.84;8226763;34;20143;-73
2022/03/05 06:45:47;;;;;;;34.30;14.33;;;;;;;-1.65;72.71;101052.50;8221825;34;20470;-73
2022/03/05 06:50:50;;;;;;;36.77;13.73;;;;;;;-1.37;72.58;101048.44;8227213;34;20225;-73
2022/03/05 06:55:55;;;;;;;34.87;14.50;;;;;;;-1.28;72.22;101054.38;8226922;34;20202;-73
2022/03/05 07:00:58;;;;;;;34.20;15.03;;;;;;;-1.18;71.94;101050.66;8225793;34;20264;-72
2022/03/05 07:06:02;;;;;;;33.63;14.17;;;;;;;-0.88;71.06;101056.13;8226204;34;20163;-73
2022/03/05 07:11:06;;;;;;;28.47;12.60;;;;;;;-0.72;70.67;101065.44;8224699;34;20639;-73
2022/03/05 07:16:09;;;;;;;27.00;12.20;;;;;;;-0.31;69.46;101071.47;8225420;34;20437;-73
2022/03/05 07:21:12;;;;;;;30.57;11.90;;;;;;;-0.01;68.99;101076.03;8226077;34;20916;-73
2022/03/05 07:26:19;;;;;;;26.77;14.00;;;;;;;0.87;67.67;101079.75;8231900;34;20554;-73
2022/03/05 07:31:22;;;;;;;28.97;11.67;;;;;;;1.23;65.34;101090.97;8225769;34;20144;-73
2022/03/05 07:36:25;;;;;;;27.90;12.37;;;;;;;1.73;64.50;101086.72;8225501;34;20419;-73
2022/03/05 07:41:29;;;;;;;24.00;12.70;;;;;;;2.00;61.90;101096.44;8225621;34;20525;-73
2022/03/05 07:46:32;;;;;;;23.53;11.87;;;;;;;1.82;62.64;101095.28;8226147;34;20166;-73
2022/03/05 07:51:37;;;;;;;28.03;13.23;;;;;;;1.72;62.63;101098.22;8225334;34;20983;-74
2022/03/05 07:56:42;;;;;;;36.97;16.77;;;;;;;1.74;62.51;101098.19;8224793;34;20533;-73
2022/03/05 08:01:45;;;;;;;28.30;12.67;;;;;;;1.99;61.91;101105.31;8225272;34;20432;-74
2022/03/05 08:06:48;;;;;;;30.50;13.83;;;;;;;1.70;63.05;101099.19;8224304;34;20967;-73
2022/03/05 08:11:53;;;;;;;30.87;14.20;;;;;;;2.10;62.10;101111.97;8224065;34;20427;-73
2022/03/05 08:16:56;;;;;;;28.77;14.17;;;;;;;2.04;62.23;101106.91;8224286;34;20439;-73
2022/03/05 08:21:59;;;;;;;32.27;15.23;;;;;;;1.74;62.78;101103.50;8223729;34;20514;-73
2022/03/05 08:27:04;;;;;;;36.23;14.37;;;;;;;2.83;60.95;101105.00;8224151;34;20476;-73
2022/03/05 08:32:08;;;;;;;33.80;16.00;;;;;;;2.49;60.59;101105.34;8223777;34;20516;-73
2022/03/05 08:37:11;;;;;;;33.53;15.57;;;;;;;2.69;60.26;101108.19;8213444;34;20396;-73
2022/03/05 08:42:16;;;;;;;30.90;14.80;;;;;;;3.10;59.30;101105.75;8223766;34;20422;-74
2022/03/05 08:47:19;;;;;;;33.30;14.90;;;;;;;3.36;58.29;101107.38;8224127;34;21059;-74
2022/03/05 08:52:22;;;;;;;28.37;14.53;;;;;;;3.26;58.11;101096.28;8223420;34;20423;-74
2022/03/05 08:57:26;;;;;;;31.70;15.00;;;;;;;3.21;58.72;101107.97;8223006;34;20558;-74
2022/03/05 09:02:30;;;;;;;31.90;14.03;;;;;;;3.65;57.01;101100.91;8222733;34;20140;-74
2022/03/05 09:07:33;;;;;;;30.00;15.70;;;;;;;3.80;56.88;101099.41;8223225;34;20214;-74
2022/03/05 09:12:38;;;;;;;33.20;15.53;;;;;;;4.14;55.98;101097.97;8222824;34;20422;-74
2022/03/05 09:17:42;;;;;;;35.35;15.50;;;;;;;4.94;54.96;101097.13;8223026;34;20180;-73
2022/03/05 09:22:45;;;;;;;32.78;15.18;;;;;;;4.51;54.39;101096.38;8222360;34;20129;-74
2022/03/05 09:27:50;;;;;;;28.67;15.27;;;;;;;4.74;54.94;101087.34;8220750;34;21004;-74
2022/03/05 09:32:53;;;;;;;31.77;16.70;;;;;;;5.16;53.05;101089.03;8222799;34;20649;-75
2022/03/05 09:37:56;;;;;;;33.33;17.02;;;;;;;5.44;52.32;101091.22;8225516;34;20805;-74
2022/03/05 09:43:02;;;;;;;34.22;15.57;;;;;;;5.16;51.79;101081.88;8222980;34;20562;-74
2022/03/05 09:48:06;;;;;;;34.67;16.02;;;;;;;5.34;53.17;101081.94;8222801;34;20926;-74
2022/03/05 09:53:09;;;;;;;32.70;16.17;;;;;;;6.42;51.38;101093.41;8211717;34;20411;-74
2022/03/05 09:58:14;;;;;;;35.63;17.25;;;;;;;6.59;49.83;101088.06;8222464;34;20890;-74
2022/03/05 10:03:17;;;;;;;33.25;16.52;;;;;;;7.11;48.77;101079.91;8222208;34;20916;-74
2022/03/05 10:08:20;;;;;;;48.13;22.73;;;;;;;7.20;48.32;101081.19;8223715;34;20894;-73
2022/03/05 10:13:31;;;;;;;37.80;18.42;;;;;;;7.15;48.04;101077.91;8226331;34;20408;-73
2022/03/05 10:18:37;;;;;;;32.80;17.20;;;;;;;7.09;47.68;101087.13;8225783;34;20418;-73
2022/03/05 10:23:42;;;;;;;29.90;16.40;;;;;;;7.18;47.10;101080.41;8222015;34;20463;-73
2022/03/05 10:28:46;;;;;;;30.90;15.90;;;;;;;7.30;47.28;101081.56;8221949;34;20856;-73
2022/03/05 10:33:49;;;;;;;35.28;16.92;;;;;;;7.82;46.16;101074.09;8222328;34;20241;-73
2022/03/05 10:38:54;;;;;;;32.13;17.85;;;;;;;7.85;45.91;101086.41;8226612;34;21043;-73
2022/03/05 10:44:07;;;;;;;27.75;15.63;;;;;;;7.87;46.16;101079.13;8226398;34;20427;-73
2022/03/05 10:49:17;;;;;;;33.67;17.00;;;;;;;8.53;44.91;101084.13;8215936;34;20413;-73
2022/03/05 10:54:27;;;;;;;34.78;19.25;;;;;;;8.50;45.34;101078.06;8225718;34;20357;-73
2022/03/05 10:59:35;;;;;;;33.25;17.15;;;;;;;8.93;43.71;101065.56;8226408;34;20411;-73
2022/03/05 11:04:42;;;;;;;32.05;17.67;;;;;;;9.05;41.71;101063.91;8225659;34;20278;-73
2022/03/05 11:09:47;;;;;;;31.25;15.60;;;;;;;9.12;43.12;101062.56;8226274;34;20438;-73
2022/03/05 11:14:53;;;;;;;31.52;15.70;;;;;;;8.98;41.58;101065.25;8225472;34;20263;-73
2022/03/05 11:19:57;;;;;;;33.13;18.40;;;;;;;9.03;41.39;101047.94;8225845;34;20492;-72
2022/03/05 11:25:00;;;;;;;27.25;15.05;;;;;;;8.85;41.37;101054.47;8225377;34;20354;-72
2022/03/05 11:30:08;;;;;;;28.80;16.20;;;;;;;9.12;40.14;101049.16;8225507;34;20131;-73
2022/03/05 11:35:28;;;;;;;26.33;15.07;;;;;;;10.00;39.95;101049.63;8225155;34;20526;-73
2022/03/05 11:40:37;;;;;;;28.52;14.43;;;;;;;10.66;38.20;101042.34;8225138;34;20132;-73
2022/03/05 11:45:49;;;;;;;31.23;15.27;;;;;;;11.68;36.78;101042.09;8225021;34;20828;-73
2022/03/05 11:50:57;;;;;;;27.27;13.77;;;;;;;11.73;35.92;101034.50;8225190;34;20412;-73
2022/03/05 11:56:21;;;;;;;23.88;14.57;;;;;;;11.45;35.46;101024.09;8224642;34;20144;-73
2022/03/05 12:01:39;;;;;;;25.65;14.02;;;;;;;11.75;36.07;101022.78;8239157;28;20876;-75
2022/03/05 12:06:44;;;;;;;27.23;14.98;;;;;;;11.90;35.05;101024.28;8224263;34;20428;-75
2022/03/05 12:11:56;;;;;;;28.75;16.05;;;;;;;12.00;35.11;101019.06;8224443;34;20415;-75
2022/03/05 12:17:09;;;;;;;26.48;14.95;;;;;;;11.87;35.18;101013.75;8224441;34;20446;-75
2022/03/05 12:22:14;;;;;;;27.23;14.52;;;;;;;12.06;34.32;101008.66;8223669;34;21022;-75
2022/03/05 12:27:19;;;;;;;28.83;15.30;;;;;;;12.16;33.64;101000.75;8224099;34;20456;-75
2022/03/05 12:32:31;;;;;;;22.90;13.68;;;;;;;11.99;33.49;101011.97;8223734;34;20575;-75
2022/03/05 12:37:35;;;;;;;25.15;14.23;;;;;;;11.67;34.07;101002.69;8201597;34;20519;-75
2022/03/05 12:42:42;;;;;;;25.00;13.30;;;;;;;12.67;33.55;100996.75;8223303;34;20887;-75
2022/03/05 12:47:47;;;;;;;26.30;14.73;;;;;;;12.25;33.22;101000.00;8223821;34;20462;-75
2022/03/05 12:53:00;;;;;;;26.65;14.52;;;;;;;12.94;32.60;100991.81;8223170;34;20443;-75
2022/03/05 12:58:12;;;;;;;29.55;14.95;;;;;;;13.22;31.28;100998.53;8222495;34;20433;-75
2022/03/05 13:03:18;;;;;;;26.67;14.05;;;;;;;12.52;32.43;100994.31;8222647;34;20923;-75
2022/03/05 13:08:22;;;;;;;24.73;14.02;;;;;;;12.52;32.77;100993.47;8222886;34;20558;-75
2022/03/05 13:13:29;;;;;;;23.05;12.98;;;;;;;11.83;33.15;100994.28;8222578;34;20495;-75
2022/03/05 13:18:35;;;;;;;25.25;14.40;;;;;;;11.68;33.52;100998.16;8223058;34;20954;-75
2022/03/05 13:23:41;;;;;;;24.80;14.07;;;;;;;11.85;33.07;100994.19;8222024;34;20187;-75
2022/03/05 13:28:44;;;;;;;24.17;13.00;;;;;;;12.29;33.10;100996.16;8222629;34;20970;-75
2022/03/05 13:33:51;;;;;;;23.00;13.52;;;;;;;13.09;31.74;100994.28;8222578;34;20747;-75
2022/03/05 13:38:58;;;;;;;24.90;13.85;;;;;;;14.78;28.58;100989.69;8224038;34;20933;-75
2022/03/05 13:44:02;;;;;;;24.83;13.25;;;;;;;15.85;27.54;101002.53;8201913;34;20404;-75
2022/03/05 13:49:06;;;;;;;27.23;13.90;;;;;;;15.20;28.09;100994.91;8246257;34;20694;-75
2022/03/05 13:54:09;;;;;;;22.35;13.55;;;;;;;15.74;28.06;100989.13;8286718;34;20423;-75
2022/03/05 13:59:13;;;;;;;22.58;13.23;;;;;;;15.96;26.63;100985.25;8285893;34;20889;-75
2022/03/05 14:04:21;;;;;;;22.00;12.57;;;;;;;15.87;27.01;100986.97;8268556;34;20437;-75
2022/03/05 14:09:30;;;;;;;20.85;12.45;;;;;;;16.28;25.99;100985.78;8276545;34;20429;-75
2022/03/05 14:14:43;;;;;;;20.02;10.95;;;;;;;16.28;25.99;100985.78;8263495;34;20395;-75
2022/03/05 14:19:47;;;;;;;17.83;11.20;;;;;;;16.65;24.75;100976.81;8261392;34;20535;-75
2022/03/05 14:24:55;;;;;;;21.30;10.77;;;;;;;16.98;24.12;100977.22;8280241;34;20531;-75
2022/03/05 14:29:58;;;;;;;17.77;10.00;;;;;;;17.20;23.90;100978.69;8292900;34;20471;-74
2022/03/05 14:35:04;;;;;;;19.48;11.43;;;;;;;15.72;25.42;100975.75;8299306;34;20884;-74
2022/03/05 14:40:11;;;;;;;20.02;10.65;;;;;;;15.56;26.20;100970.06;8298303;34;20538;-74
2022/03/05 14:45:16;;;;;;;20.40;12.90;;;;;;;15.25;26.99;100970.16;8292785;34;20507;-74
2022/03/05 14:50:25;;;;;;;20.48;11.70;;;;;;;15.23;26.58;100967.56;8295142;34;20447;-73
2022/03/05 14:55:28;;;;;;;19.38;11.35;;;;;;;15.30;25.96;100972.41;8295598;34;20503;-74
2022/03/05 15:00:40;;;;;;;19.75;10.68;;;;;;;15.21;26.66;100966.84;8297518;34;20465;-74
2022/03/05 15:05:45;;;;;;;21.52;12.73;;;;;;;14.39;27.37;100975.13;8280704;34;20941;-73
2022/03/05 15:10:48;;;;;;;19.35;11.63;;;;;;;12.76;29.02;100974.47;8278815;34;20168;-73
2022/03/05 15:15:51;;;;;;;19.13;10.98;;;;;;;12.20;30.13;100983.34;8306060;34;20848;-74
2022/03/05 15:20:55;;;;;;;23.30;13.45;;;;;;;11.16;31.79;100981.44;8306426;34;20148;-73
2022/03/05 15:25:58;;;;;;;31.98;17.63;;;;;;;10.73;32.47;100973.78;8303919;34;20695;-73
2022/03/05 15:31:03;;;;;;;33.30;17.58;;;;;;;10.26;33.35;100972.66;8281483;34;20476;-74
2022/03/05 15:36:07;;;;;;;22.80;13.02;;;;;;;10.17;33.60;100986.72;8304739;34;20638;-75
2022/03/05 15:41:11;;;;;;;25.60;14.00;;;;;;;9.75;33.08;100985.16;8302443;34;20599;-75
2022/03/05 15:46:15;;;;;;;25.15;12.32;;;;;;;9.34;34.63;100989.63;8308556;34;20152;-75
2022/03/05 15:51:20;;;;;;;26.13;13.45;;;;;;;9.13;35.82;100983.84;8303611;34;20448;-75
2022/03/05 15:56:23;;;;;;;20.33;12.35;;;;;;;8.81;36.14;100994.00;8302558;34;20243;-75
2022/03/05 16:01:26;;;;;;;28.73;14.80;;;;;;;8.03;36.86;100985.44;8303008;34;20239;-75
2022/03/05 16:06:31;;;;;;;25.30;13.57;;;;;;;8.11;37.23;100980.50;8234767;34;20887;-75
2022/03/05 16:11:34;;;;;;;21.35;13.07;;;;;;;8.18;37.73;100987.19;8224406;34;20978;-75
2022/03/05 16:16:37;;;;;;;23.70;13.13;;;;;;;8.03;38.15;100982.78;8224216;34;20419;-75
2022/03/05 16:21:42;;;;;;;24.17;12.85;;;;;;;7.90;38.87;100982.69;8224249;34;20727;-75
2022/03/05 16:26:45;;;;;;;20.42;12.23;;;;;;;7.57;39.22;100988.19;8223891;34;20426;-75
2022/03/05 16:31:48;;;;;;;24.73;11.80;;;;;;;7.44;39.89;100986.25;8201030;34;20222;-75
2022/03/05 16:36:52;;;;;;;26.63;14.82;;;;;;;7.25;40.40;100997.16;8223478;34;20219;-75
2022/03/05 16:41:56;;;;;;;22.35;12.30;;;;;;;6.83;40.95;100985.25;8223595;34;20466;-74
2022/03/05 16:46:59;;;;;;;22.15;11.93;;;;;;;6.52;41.47;100994.06;8224921;34;20310;-74
2022/03/05 16:52:04;;;;;;;23.08;12.05;;;;;;;6.14;42.41;100999.69;8201468;34;20420;-74
2022/03/05 16:57:07;;;;;;;22.98;12.05;;;;;;;5.80;43.12;100997.91;8223449;34;20360;-74
2022/03/05 17:02:11;;;;;;;20.65;11.18;;;;;;;5.55;43.53;100995.63;8222780;34;20215;-75
2022/03/05 17:07:15;;;;;;;21.40;12.00;;;;;;;5.21;44.28;100993.75;8223029;34;20127;-75
2022/03/05 17:12:39;;;;;;;20.55;11.50;;;;;;;5.03;44.10;101001.69;8223201;34;20453;-75
2022/03/05 17:17:42;;;;;;;21.35;12.45;;;;;;;4.84;44.76;101007.00;8223494;34;20419;-75
2022/03/05 17:22:47;;;;;;;22.95;12.48;;;;;;;4.77;44.79;101015.34;8222681;34;20411;-75
2022/03/05 17:27:50;;;;;;;29.58;14.35;;;;;;;4.60;44.88;101022.31;8222967;34;20424;-75
2022/03/05 17:32:54;;;;;;;28.25;14.98;;;;;;;4.50;44.88;101029.00;8222479;34;20980;-75
2022/03/05 17:37:58;;;;;;;37.35;20.50;;;;;;;4.23;45.29;101030.25;8222541;34;20346;-75
2022/03/05 17:43:01;;;;;;;24.63;11.98;;;;;;;4.09;45.22;101034.38;8223381;34;20323;-75
2022/03/05 17:48:05;;;;;;;23.00;12.38;;;;;;;3.91;46.08;101044.00;8227770;34;20429;-74
2022/03/05 17:53:10;;;;;;;19.95;12.23;;;;;;;3.84;46.36;101042.56;8227417;34;20470;-75
2022/03/05 17:58:13;;;;;;;22.80;12.50;;;;;;;3.69;46.66;101038.72;8227875;34;20477;-76
2022/03/05 18:03:18;;;;;;;19.52;11.82;;;;;;;3.56;46.77;101036.66;8226923;34;20464;-75
2022/03/05 18:08:23;;;;;;;24.42;13.63;;;;;;;3.45;47.01;101042.41;8227130;34;20423;-75
2022/03/05 18:13:30;;;;;;;23.65;13.65;;;;;;;3.43;47.21;101049.59;8226998;34;20417;-75
2022/03/05 18:18:33;;;;;;;24.58;12.50;;;;;;;3.30;47.42;101045.69;8226832;34;20429;-76
2022/03/05 18:23:38;;;;;;;60.40;26.20;;;;;;;3.19;47.68;101046.13;8226576;34;21002;-75
2022/03/05 18:28:41;;;;;;;32.08;18.02;;;;;;;3.12;48.12;101048.13;8227045;34;20534;-75
2022/03/05 18:33:45;;;;;;;24.07;14.13;;;;;;;3.03;48.46;101059.97;8226434;34;20129;-75
2022/03/05 18:38:49;;;;;;;18.77;10.57;;;;;;;2.93;48.44;101069.22;8226434;34;20471;-75
2022/03/05 18:43:52;;;;;;;22.38;11.90;;;;;;;2.85;48.66;101076.59;8227609;34;20400;-75
2022/03/05 18:48:58;;;;;;;20.30;11.65;;;;;;;2.71;48.74;101070.97;8226371;34;20412;-75
2022/03/05 18:54:03;;;;;;;26.20;13.35;;;;;;;2.65;48.98;101064.09;8226093;34;20462;-74
2022/03/05 18:59:06;;;;;;;30.33;15.73;;;;;;;2.43;49.58;101058.69;8226657;34;20764;-74
2022/03/05 19:04:09;;;;;;;33.23;18.07;;;;;;;2.35;49.91;101058.97;8226137;34;20522;-74
2022/03/05 19:09:14;;;;;;;33.90;15.93;;;;;;;2.39;50.01;101073.00;8225723;34;20978;-75
2022/03/05 19:14:17;;;;;;;30.17;15.57;;;;;;;2.32;49.89;101074.97;8229799;34;20486;-74
2022/03/05 19:19:22;;;;;;;32.87;15.50;;;;;;;2.25;50.28;101084.09;8225878;34;20485;-75
2022/03/05 19:24:27;;;;;;;30.35;16.27;;;;;;;2.20;50.71;101086.03;8225121;34;20205;-74
2022/03/05 19:29:30;;;;;;;26.67;14.90;;;;;;;2.10;50.19;101088.13;8225688;34;20463;-75
2022/03/05 19:34:33;;;;;;;29.77;17.17;;;;;;;1.98;50.40;101098.31;8225573;34;20406;-74
2022/03/05 19:39:38;;;;;;;26.00;15.70;;;;;;;1.95;50.66;101100.13;8202726;34;20137;-74
2022/03/05 19:44:41;;;;;;;24.97;13.70;;;;;;;1.92;50.75;101107.28;8224602;34;20564;-74
2022/03/05 19:49:45;;;;;;;25.40;12.87;;;;;;;2.00;51.16;101104.38;8224986;34;20528;-75
2022/03/05 19:54:51;;;;;;;24.00;13.43;;;;;;;1.94;51.13;101108.97;8224444;34;20427;-75
2022/03/05 19:59:54;;;;;;;23.47;13.40;;;;;;;1.82;51.12;101112.06;8224475;34;20422;-75
2022/03/05 20:04:57;;;;;;;26.23;13.70;;;;;;;1.80;51.42;101119.19;8229688;34;20176;-75
2022/03/05 20:10:03;;;;;;;20.70;12.00;;;;;;;1.82;51.23;101113.84;8254515;34;20513;-75
2022/03/05 20:15:08;;;;;;;26.33;14.07;;;;;;;1.73;51.34;101115.00;8264885;34;20410;-75
2022/03/05 20:20:17;;;;;;;25.13;13.13;;;;;;;1.56;51.88;101120.81;8234544;34;20422;-75
2022/03/05 20:25:22;;;;;;;22.23;12.77;;;;;;;1.55;51.95;101118.25;8223587;34;20373;-75
2022/03/05 20:30:25;;;;;;;21.20;13.10;;;;;;;1.55;51.78;101126.19;8223781;34;20991;-75
2022/03/05 20:35:30;;;;;;;24.67;13.80;;;;;;;1.58;51.55;101126.94;8223386;34;20525;-75
2022/03/05 20:40:35;;;;;;;20.38;13.02;;;;;;;1.48;51.63;101131.69;8224002;34;20572;-75
2022/03/05 20:45:38;;;;;;;24.60;14.10;;;;;;;1.49;51.98;101133.41;8223195;34;20992;-75
2022/03/05 20:50:42;;;;;;;40.30;20.63;;;;;;;1.45;52.03;101129.13;8223429;34;20428;-75
2022/03/05 20:55:47;;;;;;;36.60;18.53;;;;;;;1.43;52.42;101141.56;8223044;34;20919;-75
2022/03/05 21:00:51;;;;;;;28.87;15.10;;;;;;;1.40;51.91;101139.00;8223106;34;20420;-75
2022/03/05 21:05:55;;;;;;;29.83;16.00;;;;;;;1.31;52.24;101143.69;8222848;34;20439;-74
2022/03/05 21:11:00;;;;;;;31.40;16.43;;;;;;;1.22;52.90;101142.19;8222850;34;20466;-75
2022/03/05 21:16:03;;;;;;;31.23;17.37;;;;;;;1.14;53.43;101142.44;8222738;34;20414;-74
2022/03/05 21:21:08;;;;;;;37.43;17.73;;;;;;;1.03;53.55;101142.75;8222419;34;20426;-75
2022/03/05 21:26:12;;;;;;;29.13;16.23;;;;;;;1.08;53.93;101150.56;8222488;34;20528;-75
2022/03/05 21:31:15;;;;;;;30.03;17.03;;;;;;;0.68;54.38;101156.09;8222653;34;20828;-75
2022/03/05 21:36:18;;;;;;;34.57;17.97;;;;;;;0.49;54.84;101161.03;8222363;34;20920;-75
2022/03/05 21:41:23;;;;;;;36.33;18.07;;;;;;;0.20;55.33;101169.72;8222646;34;20463;-75
2022/03/05 21:46:26;;;;;;;37.70;18.17;;;;;;;0.11;56.17;101174.34;8222082;34;20510;-75
2022/03/05 21:51:29;;;;;;;31.83;15.67;;;;;;;0.15;56.52;101177.75;8222417;34;20416;-75
2022/03/05 21:56:33;;;;;;;30.20;17.13;;;;;;;0.19;56.48;101182.06;8221915;34;21067;-75
2022/03/05 22:01:37;;;;;;;32.00;17.40;;;;;;;0.18;56.48;101180.31;8229644;34;20522;-75
2022/03/05 22:06:43;;;;;;;30.77;16.67;;;;;;;0.22;56.59;101182.00;8224233;34;20935;-75
2022/03/05 22:11:47;;;;;;;27.97;16.87;;;;;;;0.39;56.39;101173.63;8222154;34;20436;-74
2022/03/05 22:16:50;;;;;;;32.10;18.73;;;;;;;0.41;56.36;101170.94;8221760;34;20550;-74
2022/03/05 22:21:53;;;;;;;32.60;17.43;;;;;;;0.39;56.65;101173.63;8222241;34;20220;-75
2022/03/05 22:26:58;;;;;;;29.87;16.10;;;;;;;0.46;56.16;101177.81;8222754;34;20435;-75
2022/03/05 22:32:01;;;;;;;33.17;17.93;;;;;;;0.42;56.23;101175.31;8226611;34;20421;-75
2022/03/05 22:37:05;;;;;;;30.93;17.63;;;;;;;0.18;56.61;101182.97;8227342;34;20392;-75
2022/03/05 22:42:09;;;;;;;32.07;17.27;;;;;;;-0.16;57.20;101190.88;8225742;34;20688;-75
2022/03/05 22:47:12;;;;;;;32.00;16.60;;;;;;;-0.36;58.15;101192.16;8226221;34;20466;-75
2022/03/05 22:52:16;;;;;;;36.87;19.23;;;;;;;-0.47;58.46;101193.31;8225879;34;20354;-75
2022/03/05 22:57:20;;;;;;;35.73;19.27;;;;;;;-0.45;58.70;101191.53;8226418;34;20538;-75
2022/03/05 23:13:06;;;;;;;30.33;18.00;;;;;;;-0.25;58.24;101188.41;8225177;34;20518;-75
2022/03/05 23:18:09;;;;;;;32.50;18.47;;;;;;;-0.32;58.47;101188.56;8224674;34;20223;-75
2022/03/05 23:23:12;;;;;;;29.63;17.23;;;;;;;-0.28;58.58;101190.22;8224907;34;20878;-75